Time;durP1;ratioP1;P1;durP2;ratioP2;P2;SDS_P1;SDS_P2;PMS_P1;PMS_P2;Temp;Humidity;BMP_temperature;BMP_pressure;BME280_temperature;BME280_humidity;BME280_pressure;Samples;Min_cycle;Max_cycle;Signal;HPM_P1;HPM_P2
2022/04/03 00:00:17;;;;;;;7.13;5.82;;;6.70;64.50;;;-142.21;100.00;112049.66;4948566;29;20389;-71
2022/04/03 00:02:45;;;;;;;5.90;5.30;;;6.70;64.10;;;-142.21;100.00;112049.66;4954537;28;20240;-70
2022/04/03 00:05:13;;;;;;;7.30;5.88;;;6.70;64.10;;;-142.21;100.00;112049.66;4953937;28;20569;-70
2022/04/03 00:07:40;;;;;;;6.60;5.47;;;6.60;63.80;;;-142.21;100.00;112049.66;4954800;28;20257;-70
2022/04/03 00:10:10;;;;;;;7.43;5.28;;;6.60;64.00;;;-142.21;100.00;112049.66;4953804;29;20201;-71
2022/04/03 00:12:40;;;;;;;11.20;5.75;;;6.60;64.00;;;-142.21;100.00;112049.66;4954739;28;20284;-72
2022/04/03 00:15:08;;;;;;;7.60;6.32;;;6.60;64.40;;;-142.21;100.00;112049.66;4953471;29;20205;-71
2022/04/03 00:17:36;;;;;;;6.55;5.70;;;6.70;64.70;;;-142.21;100.00;112049.66;4954587;28;20555;-73
2022/04/03 00:20:04;;;;;;;9.13;6.70;;;6.60;64.60;;;-142.21;100.00;112049.66;4952828;29;20213;-74
2022/04/03 00:22:31;;;;;;;7.57;6.38;;;6.70;64.70;;;-142.21;100.00;112049.66;4954024;28;20239;-71
2022/04/03 00:24:58;;;;;;;7.63;5.75;;;6.70;64.50;;;-142.21;100.00;112049.66;4953500;29;20576;-72
2022/04/03 00:27:27;;;;;;;8.57;6.32;;;6.70;64.70;;;-142.21;100.00;112049.66;4954169;29;20247;-73
2022/04/03 00:29:54;;;;;;;6.75;5.50;;;6.70;65.70;;;-142.21;100.00;112049.66;4954675;28;20201;-73
2022/04/03 00:32:23;;;;;;;8.18;5.90;;;6.70;65.00;;;-142.21;100.00;112049.66;4954377;29;20712;-71
2022/04/03 00:34:51;;;;;;;6.95;6.13;;;6.70;65.00;;;-142.21;100.00;112049.66;4954823;28;20240;-72
2022/04/03 00:37:18;;;;;;;6.32;5.68;;;6.60;64.40;;;-142.21;100.00;112049.66;4953693;28;20213;-72
2022/04/03 00:39:46;;;;;;;7.30;6.22;;;6.60;64.50;;;-142.21;100.00;112049.66;4954096;29;20588;-71
2022/04/03 00:42:13;;;;;;;8.77;6.50;;;6.60;64.10;;;-142.21;100.00;112049.66;4953790;28;20670;-72
2022/04/03 00:44:42;;;;;;;7.85;6.57;;;6.60;65.10;;;-142.21;100.00;112049.66;4953458;28;20667;-72
2022/04/03 00:47:12;;;;;;;8.70;6.10;;;6.60;64.40;;;-142.21;100.00;112049.66;4953050;28;20304;-71
2022/04/03 00:49:40;;;;;;;6.78;6.07;;;6.60;64.40;;;-142.21;100.00;112049.66;4959100;28;20199;-72
2022/04/03 00:52:08;;;;;;;7.85;6.10;;;6.70;64.50;;;-142.21;100.00;112049.66;4955980;28;20669;-71
2022/04/03 00:54:35;;;;;;;6.65;5.97;;;6.60;65.00;;;-142.21;100.00;112049.66;4953561;29;20610;-72
2022/04/03 00:57:07;;;;;;;7.72;5.88;;;6.60;65.60;;;-142.21;100.00;112049.66;4953250;29;20558;-72
2022/04/03 00:59:36;;;;;;;7.13;5.85;;;6.60;64.70;;;-142.21;100.00;112049.66;4953299;29;20194;-73
2022/04/03 01:02:05;;;;;;;9.77;6.05;;;6.60;64.50;;;-142.21;100.00;112049.66;4953635;29;20307;-72
2022/04/03 01:04:32;;;;;;;8.35;5.97;;;6.60;64.60;;;-142.21;100.00;112049.66;4953289;29;20284;-73
2022/04/03 01:06:59;;;;;;;8.00;6.15;;;6.60;64.60;;;-142.21;100.00;112049.66;4953102;28;20233;-72
2022/04/03 01:09:28;;;;;;;7.65;6.20;;;6.60;65.00;;;-142.21;100.00;112049.66;4953658;29;20229;-71
2022/04/03 01:11:56;;;;;;;8.85;6.57;;;6.60;65.00;;;-142.21;100.00;112049.66;4952625;28;20209;-73
2022/04/03 01:14:43;;;;;;;9.38;6.75;;;6.60;64.90;;;-142.21;100.00;112049.66;4953116;29;20292;-72
2022/04/03 01:17:14;;;;;;;8.68;6.45;;;6.70;65.40;;;-142.21;100.00;112049.66;4948658;29;20193;-73
2022/04/03 01:19:42;;;;;;;9.57;7.22;;;6.70;65.00;;;-142.21;100.00;112049.66;4952408;29;20204;-72
2022/04/03 01:22:10;;;;;;;8.30;6.32;;;6.80;64.80;;;-142.21;100.00;112049.66;4952539;29;20341;-72
2022/04/03 01:24:37;;;;;;;8.07;6.20;;;6.80;64.80;;;-142.21;100.00;112049.66;4952215;28;20300;-73
2022/04/03 01:27:06;;;;;;;9.48;6.63;;;6.80;65.20;;;-142.21;100.00;112049.66;4953841;29;20222;-73
2022/04/03 01:29:33;;;;;;;9.32;6.50;;;6.80;65.30;;;-142.21;100.00;112049.66;4953092;29;20256;-73
2022/04/03 01:32:00;;;;;;;8.18;6.35;;;6.80;65.60;;;-142.21;100.00;112049.66;4953326;29;20251;-72
2022/04/03 01:34:28;;;;;;;7.50;6.15;;;6.80;65.20;;;-142.21;100.00;112049.66;4953588;29;20568;-73
2022/04/03 01:36:55;;;;;;;9.45;6.88;;;6.80;65.50;;;-142.21;100.00;112049.66;4953751;29;20297;-73
2022/04/03 01:39:22;;;;;;;6.70;5.70;;;6.80;65.50;;;-142.21;100.00;112049.66;4954045;29;20220;-73
2022/04/03 01:41:49;;;;;;;8.10;6.32;;;6.80;65.40;;;-142.21;100.00;112049.66;4953419;29;20544;-73
2022/04/03 01:44:17;;;;;;;8.10;6.40;;;6.80;65.20;;;-142.21;100.00;112049.66;4953530;28;20213;-72
2022/04/03 01:46:44;;;;;;;7.88;5.53;;;6.80;65.20;;;-142.21;100.00;112049.66;4953242;29;20235;-74
2022/04/03 01:49:11;;;;;;;7.25;5.80;;;6.80;65.10;;;-142.21;100.00;112049.66;4952540;29;20219;-73
2022/04/03 01:51:39;;;;;;;6.90;5.43;;;6.80;65.10;;;-142.21;100.00;112049.66;4952911;28;20205;-73
2022/04/03 01:54:06;;;;;;;7.63;5.80;;;6.80;64.80;;;-142.21;100.00;112049.66;4953399;29;20207;-73
2022/04/03 01:56:34;;;;;;;8.02;5.30;;;6.80;63.90;;;-142.21;100.00;112049.66;4953349;29;20208;-71
2022/04/03 01:59:02;;;;;;;9.55;5.97;;;6.80;64.30;;;-142.21;100.00;112049.66;4959046;28;20206;-71
2022/04/03 02:01:33;;;;;;;6.95;5.90;;;6.80;64.40;;;-142.21;100.00;112049.66;4957167;28;20268;-73
2022/04/03 02:04:02;;;;;;;7.75;6.00;;;6.90;65.00;;;-142.21;100.00;112049.66;4960890;28;20212;-73
2022/04/03 02:06:30;;;;;;;6.97;5.53;;;6.80;65.20;;;-142.21;100.00;112049.66;4957670;29;20212;-73
2022/04/03 02:08:57;;;;;;;6.78;5.60;;;6.80;65.60;;;-142.21;100.00;112049.66;4957451;29;20209;-73
2022/04/03 02:11:24;;;;;;;9.15;5.72;;;6.80;65.10;;;-142.21;100.00;112049.66;4956689;28;20197;-72
2022/04/03 02:13:51;;;;;;;9.00;6.32;;;6.80;65.50;;;-142.21;100.00;112049.66;4957476;29;20217;-72
2022/04/03 02:16:19;;;;;;;7.65;5.82;;;6.80;65.50;;;-142.21;100.00;112049.66;4957343;29;20575;-72
2022/04/03 02:18:48;;;;;;;7.28;5.68;;;6.80;65.30;;;-142.21;100.00;112049.66;4957328;29;20212;-72
2022/04/03 02:21:15;;;;;;;6.57;5.65;;;6.80;65.60;;;-142.21;100.00;112049.66;4957276;28;20229;-72
2022/04/03 02:23:42;;;;;;;7.45;5.70;;;6.80;65.60;;;-142.21;100.00;112049.66;4956707;29;20247;-73
2022/04/03 02:26:10;;;;;;;6.78;5.95;;;6.70;65.70;;;-142.21;100.00;112049.66;4957432;29;20631;-72
2022/04/03 02:28:39;;;;;;;7.70;5.80;;;6.80;65.70;;;-142.21;100.00;112049.66;4956422;29;20221;-72
2022/04/03 02:31:07;;;;;;;6.95;5.72;;;6.80;65.10;;;-142.21;100.00;112049.66;4957778;29;20216;-72
2022/04/03 02:33:34;;;;;;;6.35;5.40;;;6.70;65.50;;;-142.21;100.00;112049.66;4956762;29;20304;-73
2022/04/03 02:36:03;;;;;;;7.25;5.57;;;6.80;66.20;;;-142.21;100.00;112049.66;4957010;29;20205;-73
2022/04/03 02:38:30;;;;;;;8.32;5.35;;;6.80;66.40;;;-142.21;100.00;112049.66;4956722;29;20194;-73
2022/04/03 02:40:57;;;;;;;5.80;5.22;;;6.70;66.10;;;-142.21;100.00;112049.66;4956714;29;20214;-73
2022/04/03 02:43:24;;;;;;;6.75;5.07;;;6.70;66.10;;;-142.21;100.00;112049.66;4957052;29;20220;-73
2022/04/03 02:45:51;;;;;;;7.25;5.88;;;6.70;66.50;;;-142.21;100.00;112049.66;4955587;28;20280;-72
2022/04/03 02:48:19;;;;;;;6.97;5.57;;;6.70;66.30;;;-142.21;100.00;112049.66;4955999;29;20221;-73
2022/04/03 02:50:46;;;;;;;7.90;5.93;;;6.80;66.20;;;-142.21;100.00;112049.66;4956184;29;20209;-73
2022/04/03 02:53:14;;;;;;;6.85;5.70;;;6.70;66.10;;;-142.21;100.00;112049.66;4956446;29;20210;-73
2022/04/03 02:55:41;;;;;;;7.05;5.82;;;6.70;65.80;;;-142.21;100.00;112049.66;4956131;29;20571;-73
2022/04/03 02:58:09;;;;;;;8.65;6.18;;;6.70;65.80;;;-142.21;100.00;112049.66;4957178;28;20614;-73
2022/04/03 03:00:36;;;;;;;9.57;5.68;;;6.70;66.00;;;-142.21;100.00;112049.66;4956483;29;20288;-74
2022/04/03 03:03:05;;;;;;;6.03;5.43;;;6.80;65.50;;;-142.21;100.00;112049.66;4956731;29;20283;-73
2022/04/03 03:05:32;;;;;;;7.75;5.70;;;6.80;64.90;;;-142.21;100.00;112049.66;4922815;29;20201;-73
2022/04/03 03:07:59;;;;;;;7.00;6.18;;;6.80;64.40;;;-142.21;100.00;112049.66;4955175;29;20225;-74
2022/04/03 03:10:28;;;;;;;8.27;6.30;;;6.80;63.90;;;-142.21;100.00;112049.66;4955734;28;20206;-73
2022/04/03 03:12:55;;;;;;;7.53;6.20;;;6.80;64.30;;;-142.21;100.00;112049.66;4954148;28;20658;-73
2022/04/03 03:15:23;;;;;;;7.43;5.95;;;6.90;64.10;;;-142.21;100.00;112049.66;4956499;28;20208;-73
2022/04/03 03:17:50;;;;;;;6.47;5.75;;;6.80;64.80;;;-142.21;100.00;112049.66;4955541;29;20201;-73
2022/04/03 03:20:17;;;;;;;7.78;5.28;;;6.80;65.00;;;-142.21;100.00;112049.66;4957072;28;20560;-73
2022/04/03 03:22:45;;;;;;;8.05;6.68;;;6.80;64.90;;;-142.21;100.00;112049.66;4955763;28;20736;-73
2022/04/03 03:25:12;;;;;;;7.38;5.70;;;6.90;65.20;;;-142.21;100.00;112049.66;4955349;29;20233;-73
2022/04/03 03:27:41;;;;;;;8.38;6.47;;;6.90;64.80;;;-142.21;100.00;112049.66;4956416;29;20221;-73
2022/04/03 03:30:12;;;;;;;6.53;5.82;;;6.90;64.40;;;-142.21;100.00;112049.66;4955605;29;20201;-73
2022/04/03 03:32:39;;;;;;;7.82;5.68;;;6.90;65.10;;;-142.21;100.00;112049.66;4956080;29;20244;-73
2022/04/03 03:35:08;;;;;;;7.03;5.72;;;6.80;65.10;;;-142.21;100.00;112049.66;4953979;28;20224;-73
2022/04/03 03:37:35;;;;;;;6.28;5.30;;;6.80;65.40;;;-142.21;100.00;112049.66;4955833;29;20197;-73
2022/04/03 03:40:06;;;;;;;8.00;5.80;;;6.80;65.60;;;-142.21;100.00;112049.66;4955490;29;20217;-73
2022/04/03 03:42:33;;;;;;;6.93;5.68;;;6.80;65.40;;;-142.21;100.00;112049.66;4956029;29;20288;-73
2022/04/03 03:45:02;;;;;;;8.80;6.25;;;6.80;66.00;;;-142.21;100.00;112049.66;4955733;29;20209;-73
2022/04/03 03:47:29;;;;;;;8.30;6.07;;;6.80;66.00;;;-142.21;100.00;112049.66;4955463;29;20690;-73
2022/04/03 03:49:56;;;;;;;8.00;6.35;;;6.80;65.80;;;-142.21;100.00;112049.66;4956346;29;20211;-72
2022/04/03 03:52:24;;;;;;;9.00;6.25;;;6.80;66.40;;;-142.21;100.00;112049.66;4954688;28;20776;-72
2022/04/03 03:54:52;;;;;;;7.07;5.60;;;6.80;66.70;;;-142.21;100.00;112049.66;4953383;28;20308;-72
2022/04/03 03:57:19;;;;;;;7.40;6.25;;;6.80;66.60;;;-142.21;100.00;112049.66;4955001;29;20338;-73
2022/04/03 03:59:47;;;;;;;8.02;6.45;;;6.80;66.50;;;-142.21;100.00;112049.66;4955255;29;20217;-72
2022/04/03 04:02:16;;;;;;;8.65;6.88;;;6.80;66.60;;;-142.21;100.00;112049.66;4955392;29;20212;-74
2022/04/03 04:04:43;;;;;;;8.82;6.07;;;6.70;66.40;;;-142.21;100.00;112049.66;4955833;29;20562;-72
2022/04/03 04:07:10;;;;;;;7.63;6.05;;;6.80;66.30;;;-142.21;100.00;112049.66;4955365;28;20563;-73
2022/04/03 04:09:39;;;;;;;7.97;6.40;;;6.70;65.90;;;-142.21;100.00;112049.66;4954552;29;20202;-73
2022/04/03 04:12:08;;;;;;;8.68;6.78;;;6.80;66.20;;;-142.21;100.00;112049.66;4955318;28;20209;-73
2022/04/03 04:14:35;;;;;;;7.18;5.85;;;6.80;66.90;;;-142.21;100.00;112049.66;4954333;29;20204;-73
2022/04/03 04:17:02;;;;;;;7.65;6.30;;;6.80;66.20;;;-142.21;100.00;112049.66;4964495;28;20219;-73
2022/04/03 04:19:30;;;;;;;8.32;6.05;;;6.80;66.40;;;-142.21;100.00;112049.66;4954921;28;20292;-74
2022/04/03 04:21:57;;;;;;;6.90;5.72;;;6.80;66.40;;;-142.21;100.00;112049.66;4954550;28;20292;-72
2022/04/03 04:24:24;;;;;;;7.88;6.28;;;6.80;66.40;;;-142.21;100.00;112049.66;4953407;29;20311;-72
2022/04/03 04:26:52;;;;;;;6.70;5.85;;;6.80;66.00;;;-142.21;100.00;112049.66;4954518;29;20233;-74
2022/04/03 04:29:19;;;;;;;8.02;5.93;;;6.90;66.30;;;-142.21;100.00;112049.66;4952806;28;20235;-73
2022/04/03 04:31:46;;;;;;;8.80;6.28;;;6.90;66.10;;;-142.21;100.00;112049.66;4954699;29;20233;-73
2022/04/03 04:34:13;;;;;;;9.07;6.30;;;6.90;67.30;;;-142.21;100.00;112049.66;4954956;29;20296;-72
2022/04/03 04:36:41;;;;;;;7.50;6.05;;;6.90;66.40;;;-142.21;100.00;112049.66;4954017;29;20205;-73
2022/04/03 04:39:09;;;;;;;8.50;6.25;;;6.90;66.60;;;-142.21;100.00;112049.66;4955127;29;20201;-73
2022/04/03 04:41:36;;;;;;;9.63;6.43;;;6.90;66.70;;;-142.21;100.00;112049.66;4954537;29;20651;-73
2022/04/03 04:44:03;;;;;;;7.13;5.93;;;6.90;66.50;;;-142.21;100.00;112049.66;4954886;29;20211;-72
2022/04/03 04:46:30;;;;;;;8.13;5.88;;;6.90;66.20;;;-142.21;100.00;112049.66;4954859;29;20240;-73
2022/04/03 04:48:57;;;;;;;8.52;6.72;;;6.90;66.40;;;-142.21;100.00;112049.66;4952538;29;20229;-74
2022/04/03 04:51:24;;;;;;;8.40;6.95;;;6.90;66.40;;;-142.21;100.00;112049.66;4954726;28;20236;-73
2022/04/03 04:53:52;;;;;;;9.98;6.63;;;6.90;67.20;;;-142.21;100.00;112049.66;4954584;28;20288;-72
2022/04/03 04:56:19;;;;;;;8.52;6.40;;;6.90;67.30;;;-142.21;100.00;112049.66;4954240;29;20202;-74
2022/04/03 04:58:46;;;;;;;9.70;6.70;;;6.90;67.00;;;-142.21;100.00;112049.66;4953601;29;20211;-74
2022/04/03 05:01:15;;;;;;;10.98;7.25;;;6.90;67.00;;;-142.21;100.00;112049.66;4953697;29;20665;-73
2022/04/03 05:03:42;;;;;;;9.25;7.13;;;6.80;67.00;;;-142.21;100.00;112049.66;4953786;28;20256;-73
2022/04/03 05:06:12;;;;;;;9.20;6.97;;;6.80;66.90;;;-142.21;100.00;112049.66;4953114;28;20197;-73
2022/04/03 05:08:40;;;;;;;9.45;6.88;;;6.80;67.10;;;-142.21;100.00;112049.66;4954559;29;20216;-73
2022/04/03 05:11:08;;;;;;;8.90;6.40;;;6.80;67.30;;;-142.21;100.00;112049.66;4953887;29;20205;-73
2022/04/03 05:13:36;;;;;;;9.55;7.72;;;6.80;67.00;;;-142.21;100.00;112049.66;4950445;29;20645;-73
2022/04/03 05:16:03;;;;;;;7.93;7.10;;;6.80;66.80;;;-142.21;100.00;112049.66;4953864;29;20228;-73
2022/04/03 05:18:30;;;;;;;10.88;7.63;;;6.80;66.40;;;-142.21;100.00;112049.66;4954448;29;20208;-73
2022/04/03 05:20:57;;;;;;;8.82;6.57;;;6.80;66.70;;;-142.21;100.00;112049.66;4953397;29;20320;-73
2022/04/03 05:23:25;;;;;;;10.50;8.13;;;6.80;66.90;;;-142.21;100.00;112049.66;4955356;28;20233;-72
2022/04/03 05:25:52;;;;;;;10.38;7.18;;;6.80;66.90;;;-142.21;100.00;112049.66;4954210;29;20268;-73
2022/04/03 05:28:21;;;;;;;9.20;7.68;;;6.80;66.80;;;-142.21;100.00;112049.66;4952521;29;20217;-73
2022/04/03 05:30:48;;;;;;;9.70;7.70;;;6.90;67.20;;;-142.21;100.00;112049.66;4952157;28;20229;-73
2022/04/03 05:33:17;;;;;;;11.13;7.90;;;6.80;67.10;;;-142.21;100.00;112049.66;4953320;28;20205;-73
2022/04/03 05:35:44;;;;;;;9.05;7.45;;;6.80;67.20;;;-142.21;100.00;112049.66;4954015;29;20620;-73
2022/04/03 05:38:11;;;;;;;9.68;7.45;;;6.90;67.20;;;-142.21;100.00;112049.66;4953278;29;20698;-73
2022/04/03 05:40:39;;;;;;;11.82;7.70;;;6.90;67.00;;;-142.21;100.00;112049.66;4953600;29;20209;-73
2022/04/03 05:43:06;;;;;;;9.07;7.10;;;6.90;67.20;;;-142.21;100.00;112049.66;4954029;29;20244;-74
2022/04/03 05:45:37;;;;;;;13.68;7.90;;;6.90;66.80;;;-142.21;100.00;112049.66;4953271;29;20666;-73
2022/04/03 05:48:06;;;;;;;8.88;7.45;;;6.90;67.00;;;-142.21;100.00;112049.66;4952783;29;20213;-73
2022/04/03 05:50:33;;;;;;;9.13;7.20;;;6.90;67.00;;;-142.21;100.00;112049.66;4952537;29;20215;-73
2022/04/03 05:53:01;;;;;;;10.27;7.40;;;6.90;66.70;;;-142.21;100.00;112049.66;4953592;29;20225;-73
2022/04/03 05:55:28;;;;;;;21.15;14.07;;;6.90;65.80;;;-142.21;100.00;112049.66;4952527;29;20568;-73
2022/04/03 05:57:55;;;;;;;13.63;9.32;;;6.90;66.30;;;-142.21;100.00;112049.66;4953467;28;20232;-73
2022/04/03 06:00:25;;;;;;;10.75;8.20;;;6.90;66.10;;;-142.21;100.00;112049.66;4952249;29;20208;-73
2022/04/03 06:02:55;;;;;;;11.15;7.43;;;6.90;65.80;;;-142.21;100.00;112049.66;4951017;28;20235;-73
2022/04/03 06:05:26;;;;;;;10.60;7.75;;;7.00;65.80;;;-142.21;100.00;112049.66;4953271;29;20663;-73
2022/04/03 06:07:53;;;;;;;9.85;7.50;;;7.00;65.70;;;-142.21;100.00;112049.66;4949223;29;20292;-72
2022/04/03 06:10:23;;;;;;;10.30;7.80;;;7.00;65.40;;;-142.21;100.00;112049.66;4952927;29;20276;-73
2022/04/03 06:12:56;;;;;;;9.38;7.85;;;7.00;65.40;;;-142.21;100.00;112049.66;4952889;29;20276;-73
2022/04/03 06:15:25;;;;;;;9.35;7.03;;;7.00;64.90;;;-142.21;100.00;112049.66;4954039;28;20626;-72
2022/04/03 06:17:54;;;;;;;9.70;7.33;;;7.00;65.00;;;-142.21;100.00;112049.66;4952861;29;20213;-73
2022/04/03 06:20:22;;;;;;;9.82;7.38;;;7.10;65.40;;;-142.21;100.00;112049.66;4953663;29;20453;-73
2022/04/03 06:22:49;;;;;;;9.32;7.47;;;7.10;65.00;;;-142.21;100.00;112049.66;4950729;28;20237;-73
2022/04/03 06:25:16;;;;;;;11.75;7.28;;;7.20;65.00;;;-142.21;100.00;112049.66;4953816;29;20215;-73
2022/04/03 06:27:43;;;;;;;7.45;6.72;;;7.30;65.10;;;-142.21;100.00;112049.66;4952556;29;20339;-73
2022/04/03 06:30:11;;;;;;;8.70;6.55;;;7.30;63.90;;;-142.21;100.00;112049.66;4955159;28;20617;-74
2022/04/03 06:32:39;;;;;;;9.10;6.85;;;7.40;63.90;;;-142.21;100.00;112049.66;4952605;29;20233;-73
2022/04/03 06:35:09;;;;;;;8.23;6.85;;;7.50;63.60;;;-142.21;100.00;112049.66;4953030;29;20216;-74
2022/04/03 06:37:38;;;;;;;7.47;6.30;;;7.60;63.30;;;-142.21;100.00;112049.66;4952832;29;20206;-73
2022/04/03 06:40:08;;;;;;;7.80;6.80;;;7.60;63.40;;;-142.21;100.00;112049.66;4952528;29;20248;-73
2022/04/03 06:42:35;;;;;;;7.17;5.90;;;7.70;63.00;;;-142.21;100.00;112049.66;4952159;28;20280;-73
2022/04/03 06:45:04;;;;;;;5.83;5.27;;;7.90;62.70;;;-142.21;100.00;112049.66;4953746;28;20543;-73
2022/04/03 06:47:32;;;;;;;6.20;5.53;;;8.20;60.40;;;-142.21;99.95;112049.66;4956795;28;20479;-73
2022/04/03 06:50:00;;;;;;;6.03;5.43;;;8.60;61.30;;;-142.21;99.55;112049.66;4956275;28;20559;-73
2022/04/03 06:52:28;;;;;;;7.83;5.30;;;9.00;59.80;;;-142.21;99.12;112049.66;4956470;29;20453;-73
2022/04/03 06:54:56;;;;;;;9.53;5.00;;;9.20;58.90;;;-142.21;99.15;112049.66;4957056;29;20456;-73
2022/04/03 06:57:23;;;;;;;6.43;4.40;;;9.30;58.40;;;-142.21;96.90;112049.66;4955699;29;20456;-73
2022/04/03 06:59:50;;;;;;;6.83;5.63;;;9.60;58.90;;;-142.21;99.15;112049.66;4956425;29;20449;-73
2022/04/03 07:02:17;;;;;;;5.77;4.70;;;9.80;58.40;;;-142.21;97.67;112049.66;4956020;29;20508;-73
2022/04/03 07:04:45;;;;;;;6.33;4.90;;;10.00;56.70;;;-142.21;98.04;112049.66;4956484;29;20456;-73
2022/04/03 07:07:12;;;;;;;6.73;5.20;;;10.00;55.60;;;-142.21;97.77;112049.66;4956136;29;20933;-73
2022/04/03 07:09:41;;;;;;;5.73;4.20;;;10.10;55.80;;;-142.21;96.85;112049.66;4956665;29;20563;-73
2022/04/03 07:12:10;;;;;;;5.80;4.73;;;10.20;55.70;;;-142.21;96.02;112049.66;4956649;29;20453;-72
2022/04/03 07:14:39;;;;;;;5.13;4.10;;;10.40;55.80;;;-142.21;96.17;112049.66;4956131;28;20937;-73
2022/04/03 07:17:06;;;;;;;4.57;4.13;;;10.50;55.30;;;-142.21;96.06;112049.66;4955849;29;20453;-72
2022/04/03 07:19:34;;;;;;;5.10;4.13;;;10.60;54.00;;;-142.21;93.14;112049.66;4955399;29;20455;-73
2022/04/03 07:22:01;;;;;;;5.70;3.83;;;10.60;52.60;;;-142.21;93.69;112049.66;4954582;28;20593;-73
2022/04/03 07:24:29;;;;;;;4.40;3.97;;;10.50;52.60;;;-142.21;93.00;112049.66;4955576;28;20484;-74
2022/04/03 07:26:57;;;;;;;5.13;4.20;;;10.40;52.80;;;-142.21;92.30;112049.66;4956299;29;20888;-73
2022/04/03 07:29:25;;;;;;;5.63;3.93;;;10.30;52.40;;;-142.21;91.93;112049.66;4955071;28;20499;-73
2022/04/03 07:31:53;;;;;;;6.27;3.80;;;10.40;53.00;;;-142.21;91.31;112049.66;4956128;29;20462;-73
2022/04/03 07:34:21;;;;;;;3.43;3.13;;;10.30;52.90;;;-142.21;90.67;112049.66;4953081;29;20453;-73
2022/04/03 07:36:48;;;;;;;4.00;3.20;;;10.20;51.60;;;-142.21;90.42;112049.66;4955218;29;20531;-73
2022/04/03 07:39:15;;;;;;;4.30;3.47;;;10.10;53.10;;;-142.21;89.85;112049.66;4955990;29;20463;-73
2022/04/03 07:41:42;;;;;;;4.23;3.47;;;10.10;52.60;;;-142.21;92.13;112049.66;4955696;29;20452;-73
2022/04/03 07:44:12;;;;;;;4.13;3.50;;;10.10;53.10;;;-142.21;91.91;112049.66;4955684;28;20456;-73
2022/04/03 07:46:39;;;;;;;4.57;3.67;;;10.10;53.10;;;-142.21;88.21;112049.66;4954425;29;20459;-73
2022/04/03 07:49:07;;;;;;;4.30;3.60;;;10.30;53.10;;;-142.21;91.80;112049.66;4955144;29;20995;-73
2022/04/03 07:51:34;;;;;;;3.90;3.30;;;10.50;53.20;;;-142.21;88.16;112049.66;4955770;29;20475;-74
2022/04/03 07:54:01;;;;;;;4.33;2.90;;;10.80;51.10;;;-142.21;85.49;112049.66;4955849;29;20456;-73
2022/04/03 07:56:29;;;;;;;3.53;3.03;;;10.90;51.00;;;-142.21;87.64;112049.66;4955583;28;20467;-73
2022/04/03 07:58:57;;;;;;;3.80;3.43;;;11.20;50.80;;;-142.21;87.30;112049.66;4947116;29;20817;-73
2022/04/03 08:01:25;;;;;;;3.63;3.03;;;11.20;50.40;;;-142.21;86.60;112049.66;4955994;29;20544;-74
2022/04/03 08:03:52;;;;;;;4.07;3.30;;;11.20;49.90;;;-142.21;85.25;112049.66;4954060;29;20457;-74
2022/04/03 08:06:19;;;;;;;3.93;3.40;;;11.00;47.80;;;-142.21;82.54;112049.66;4954650;29;20536;-73
2022/04/03 08:08:46;;;;;;;4.73;3.63;;;10.60;48.30;;;-142.21;82.91;112049.66;4952253;28;20495;-73
2022/04/03 08:11:14;;;;;;;3.67;3.17;;;10.50;48.60;;;-142.21;81.57;112049.66;4955156;29;20445;-73
2022/04/03 08:13:41;;;;;;;5.87;3.63;;;10.60;50.40;;;-142.21;80.21;112049.66;4954741;29;20457;-72
2022/04/03 08:16:08;;;;;;;3.97;3.57;;;10.30;48.00;;;-142.21;81.99;112049.66;4954819;29;20532;-73
2022/04/03 08:18:36;;;;;;;4.17;3.47;;;10.40;50.30;;;-142.21;84.77;112049.66;4955432;29;20449;-73
2022/04/03 08:21:04;;;;;;;3.90;3.50;;;10.60;50.40;;;-142.21;84.07;112049.66;4954421;29;20950;-73
2022/04/03 08:23:31;;;;;;;4.10;3.63;;;10.80;50.00;;;-142.21;85.06;112049.66;4954568;28;20829;-74
2022/04/03 08:25:58;;;;;;;5.20;4.00;;;11.00;50.00;;;-142.21;84.67;112049.66;4954943;28;20548;-74
2022/04/03 08:28:25;;;;;;;4.03;3.53;;;10.90;50.00;;;-142.21;83.10;112049.66;4954881;29;20563;-73
2022/04/03 08:30:52;;;;;;;4.27;3.87;;;10.70;49.40;;;-142.21;83.33;112049.66;4954260;29;20961;-73
2022/04/03 08:33:20;;;;;;;3.73;3.30;;;10.80;49.70;;;-142.21;81.12;112049.66;4954282;28;20460;-73
2022/04/03 08:35:50;;;;;;;3.43;3.00;;;10.90;48.20;;;-142.21;74.61;112049.66;4954696;29;20457;-73
2022/04/03 08:38:18;;;;;;;3.87;2.93;;;11.00;48.40;;;-142.21;76.49;112049.66;4949191;29;20485;-74
2022/04/03 08:40:46;;;;;;;3.20;2.90;;;10.90;46.80;;;-142.21;75.43;112049.66;4957413;28;20863;-74
2022/04/03 08:43:13;;;;;;;3.00;2.70;;;10.80;46.60;;;-142.21;69.92;112049.66;4953291;29;20969;-73
2022/04/03 08:45:40;;;;;;;2.60;2.40;;;10.70;46.30;;;-142.21;69.08;112049.66;4952938;29;20456;-73
2022/04/03 08:48:09;;;;;;;3.00;2.80;;;10.80;47.00;;;-142.21;66.42;112049.66;4953194;29;20532;-74
2022/04/03 08:50:39;;;;;;;3.67;3.10;;;11.00;46.60;;;-142.21;71.40;112049.66;4954354;29;20484;-73
2022/04/03 08:53:09;;;;;;;4.67;3.03;;;11.20;46.20;;;-142.21;72.67;112049.66;4960404;28;20471;-72
2022/04/03 08:55:37;;;;;;;3.23;2.73;;;11.40;46.50;;;-142.21;67.64;112049.66;4960112;28;20924;-73
2022/04/03 08:58:05;;;;;;;3.73;2.70;;;11.40;44.70;;;-142.21;67.92;112049.66;4974318;28;20995;-74
2022/04/03 09:00:34;;;;;;;2.93;2.63;;;12.00;45.70;;;-142.21;66.73;112049.66;4961813;28;20559;-72
2022/04/03 09:03:01;;;;;;;4.43;3.30;;;12.20;44.40;;;-142.21;68.17;112049.66;4955175;29;20453;-75
2022/04/03 09:05:39;;;;;;;3.97;2.93;;;12.30;45.40;;;-142.21;68.77;112049.66;4954388;28;20503;-74
2022/04/03 09:08:09;;;;;;;3.57;2.87;;;12.20;45.00;;;-142.21;67.45;112049.66;4954634;28;20453;-74
2022/04/03 09:10:38;;;;;;;3.00;2.70;;;11.90;43.20;;;-142.21;62.88;112049.66;4953617;29;20567;-74
2022/04/03 09:13:05;;;;;;;3.87;2.80;;;11.20;42.80;;;-142.21;67.12;112049.66;4953467;29;20817;-75
2022/04/03 09:15:33;;;;;;;3.57;2.70;;;10.70;44.30;;;-142.21;66.59;112049.66;4953694;28;20488;-73
2022/04/03 09:18:02;;;;;;;2.70;2.50;;;10.50;45.30;;;-142.21;65.51;112049.66;4954317;29;20973;-74
2022/04/03 09:20:32;;;;;;;3.93;2.83;;;10.20;45.40;;;-142.21;66.34;112049.66;4953112;29;20440;-74
2022/04/03 09:23:03;;;;;;;3.70;3.30;;;10.20;45.80;;;-142.21;68.78;112049.66;4953684;28;20919;-74
2022/04/03 09:25:33;;;;;;;4.63;2.77;;;10.10;46.10;;;-142.21;67.56;112049.66;4951109;28;20477;-74
2022/04/03 09:28:04;;;;;;;3.50;3.20;;;10.10;46.20;;;-142.21;67.87;112049.66;4936360;29;20443;-73
2022/04/03 09:30:33;;;;;;;3.63;3.10;;;10.10;46.50;;;-142.21;68.64;112049.66;4952257;29;20567;-73
2022/04/03 09:33:03;;;;;;;3.67;2.87;;;10.10;46.80;;;-142.21;67.95;112049.66;4953803;29;20500;-73
2022/04/03 09:35:32;;;;;;;3.43;3.13;;;10.10;46.50;;;-142.21;69.30;112049.66;4954271;29;20449;-72
2022/04/03 09:38:14;;;;;;;3.53;2.60;;;10.10;47.60;;;-142.21;68.53;112049.66;4953681;29;20541;-73
2022/04/03 09:40:45;;;;;;;3.93;3.00;;;10.00;46.90;;;-142.21;68.38;112049.66;4952660;29;20441;-73
2022/04/03 09:43:25;;;;;;;3.93;3.00;;;10.00;46.60;;;-142.21;69.49;112049.66;4953606;29;20520;-73
2022/04/03 09:45:54;;;;;;;3.63;3.00;;;9.90;48.30;;;-142.21;69.09;112049.66;4950614;28;20588;-75
2022/04/03 09:48:31;;;;;;;5.57;3.70;;;9.90;48.40;;;-142.21;67.91;112049.66;4953446;28;20789;-74
2022/04/03 09:51:04;;;;;;;4.33;3.37;;;9.80;48.30;;;-142.21;69.11;112049.66;4969025;28;20559;-73
2022/04/03 09:53:43;;;;;;;4.10;3.10;;;9.80;48.60;;;-142.21;69.27;112049.66;4955714;28;20516;-74
2022/04/03 09:56:15;;;;;;;3.87;3.17;;;9.70;48.80;;;-142.21;70.24;112049.66;4952965;28;20456;-73
2022/04/03 09:58:56;;;;;;;4.10;3.30;;;9.70;48.60;;;-142.21;73.10;112049.66;4954611;29;20516;-73
2022/04/03 10:01:26;;;;;;;5.73;3.40;;;9.60;49.50;;;-142.21;73.74;112049.66;4957604;28;20448;-74
2022/04/03 10:03:55;;;;;;;4.90;3.00;;;9.50;49.50;;;-142.21;71.94;112049.66;4953555;29;20436;-72